sensor_id;sensor_type;location;lat;lon;timestamp;P1;durP1;ratioP1;P2;durP2;ratioP2
40951;SDS011;26682;51.660;19.338;2023-07-16T00:02:22;5.43;;;4.88;;
40951;SDS011;26682;51.660;19.338;2023-07-16T00:05:04;5.03;;;4.63;;
40951;SDS011;26682;51.660;19.338;2023-07-16T00:07:48;6.53;;;4.85;;
40951;SDS011;26682;51.660;19.338;2023-07-16T00:10:33;6.30;;;4.55;;
40951;SDS011;26682;51.660;19.338;2023-07-16T00:13:18;5.43;;;4.93;;
40951;SDS011;26682;51.660;19.338;2023-07-16T00:16:01;5.10;;;4.70;;
40951;SDS011;26682;51.660;19.338;2023-07-16T00:18:46;6.40;;;4.70;;
40951;SDS011;26682;51.660;19.338;2023-07-16T00:21:29;5.03;;;4.60;;
40951;SDS011;26682;51.660;19.338;2023-07-16T00:24:11;4.88;;;4.43;;
40951;SDS011;26682;51.660;19.338;2023-07-16T00:26:54;5.20;;;4.70;;
40951;SDS011;26682;51.660;19.338;2023-07-16T00:29:37;6.90;;;4.68;;
40951;SDS011;26682;51.660;19.338;2023-07-16T00:32:19;5.32;;;4.82;;
40951;SDS011;26682;51.660;19.338;2023-07-16T00:35:02;6.78;;;5.10;;
40951;SDS011;26682;51.660;19.338;2023-07-16T00:37:45;5.53;;;4.95;;
40951;SDS011;26682;51.660;19.338;2023-07-16T00:40:27;7.57;;;5.47;;
40951;SDS011;26682;51.660;19.338;2023-07-16T00:43:10;5.45;;;4.80;;
40951;SDS011;26682;51.660;19.338;2023-07-16T00:45:53;5.60;;;5.05;;
40951;SDS011;26682;51.660;19.338;2023-07-16T00:48:35;5.10;;;4.32;;
40951;SDS011;26682;51.660;19.338;2023-07-16T00:51:18;5.15;;;4.68;;
40951;SDS011;26682;51.660;19.338;2023-07-16T00:54:01;5.78;;;5.28;;
40951;SDS011;26682;51.660;19.338;2023-07-16T00:56:44;5.25;;;4.68;;
40951;SDS011;26682;51.660;19.338;2023-07-16T00:59:27;6.40;;;5.25;;
40951;SDS011;26682;51.660;19.338;2023-07-16T01:02:13;6.38;;;5.15;;
40951;SDS011;26682;51.660;19.338;2023-07-16T01:04:55;6.53;;;5.20;;
40951;SDS011;26682;51.660;19.338;2023-07-16T01:07:38;5.50;;;5.00;;
40951;SDS011;26682;51.660;19.338;2023-07-16T01:10:26;5.40;;;4.90;;
40951;SDS011;26682;51.660;19.338;2023-07-16T01:13:09;5.47;;;4.97;;
40951;SDS011;26682;51.660;19.338;2023-07-16T01:15:52;5.60;;;5.10;;
40951;SDS011;26682;51.660;19.338;2023-07-16T01:18:35;8.25;;;5.20;;
40951;SDS011;26682;51.660;19.338;2023-07-16T01:21:18;5.63;;;5.13;;
40951;SDS011;26682;51.660;19.338;2023-07-16T01:27:22;5.20;;;4.72;;
40951;SDS011;26682;51.660;19.338;2023-07-16T01:30:14;6.70;;;5.90;;
40951;SDS011;26682;51.660;19.338;2023-07-16T01:32:58;5.90;;;5.30;;
40951;SDS011;26682;51.660;19.338;2023-07-16T01:35:45;6.57;;;5.57;;
40951;SDS011;26682;51.660;19.338;2023-07-16T01:38:30;5.97;;;5.30;;
40951;SDS011;26682;51.660;19.338;2023-07-16T01:41:12;7.55;;;5.15;;
40951;SDS011;26682;51.660;19.338;2023-07-16T01:43:55;6.90;;;5.22;;
40951;SDS011;26682;51.660;19.338;2023-07-16T01:46:38;5.90;;;5.40;;
40951;SDS011;26682;51.660;19.338;2023-07-16T01:49:20;7.43;;;5.15;;
40951;SDS011;26682;51.660;19.338;2023-07-16T01:52:03;8.63;;;5.80;;
40951;SDS011;26682;51.660;19.338;2023-07-16T01:54:47;6.00;;;5.47;;
40951;SDS011;26682;51.660;19.338;2023-07-16T01:57:30;6.63;;;5.65;;
40951;SDS011;26682;51.660;19.338;2023-07-16T02:00:12;7.55;;;5.75;;
40951;SDS011;26682;51.660;19.338;2023-07-16T02:03:01;6.72;;;5.32;;
40951;SDS011;26682;51.660;19.338;2023-07-16T02:05:46;7.43;;;5.65;;
40951;SDS011;26682;51.660;19.338;2023-07-16T02:08:29;5.32;;;4.82;;
40951;SDS011;26682;51.660;19.338;2023-07-16T02:11:11;5.85;;;5.25;;
40951;SDS011;26682;51.660;19.338;2023-07-16T02:13:54;6.47;;;5.85;;
40951;SDS011;26682;51.660;19.338;2023-07-16T02:16:36;5.65;;;5.15;;
40951;SDS011;26682;51.660;19.338;2023-07-16T02:19:19;8.68;;;5.68;;
40951;SDS011;26682;51.660;19.338;2023-07-16T02:22:01;5.80;;;5.30;;
40951;SDS011;26682;51.660;19.338;2023-07-16T02:24:44;8.00;;;6.00;;
40951;SDS011;26682;51.660;19.338;2023-07-16T02:27:27;6.10;;;5.50;;
40951;SDS011;26682;51.660;19.338;2023-07-16T02:30:10;7.20;;;5.68;;
40951;SDS011;26682;51.660;19.338;2023-07-16T02:32:52;6.35;;;5.47;;
40951;SDS011;26682;51.660;19.338;2023-07-16T02:35:35;6.47;;;5.47;;
40951;SDS011;26682;51.660;19.338;2023-07-16T02:38:18;5.72;;;5.22;;
40951;SDS011;26682;51.660;19.338;2023-07-16T02:41:02;5.97;;;5.38;;
40951;SDS011;26682;51.660;19.338;2023-07-16T02:43:46;7.03;;;5.68;;
40951;SDS011;26682;51.660;19.338;2023-07-16T02:46:29;6.22;;;5.63;;
40951;SDS011;26682;51.660;19.338;2023-07-16T02:49:11;6.32;;;5.72;;
40951;SDS011;26682;51.660;19.338;2023-07-16T02:51:54;6.32;;;5.60;;
40951;SDS011;26682;51.660;19.338;2023-07-16T02:54:36;6.95;;;6.22;;
40951;SDS011;26682;51.660;19.338;2023-07-16T02:57:20;6.55;;;5.80;;
40951;SDS011;26682;51.660;19.338;2023-07-16T03:00:04;6.63;;;6.05;;
40951;SDS011;26682;51.660;19.338;2023-07-16T03:02:47;6.15;;;5.55;;
40951;SDS011;26682;51.660;19.338;2023-07-16T03:05:30;6.78;;;6.00;;
40951;SDS011;26682;51.660;19.338;2023-07-16T03:08:13;14.80;;;6.28;;
40951;SDS011;26682;51.660;19.338;2023-07-16T03:10:56;6.65;;;6.10;;
40951;SDS011;26682;51.660;19.338;2023-07-16T03:13:39;6.70;;;5.85;;
40951;SDS011;26682;51.660;19.338;2023-07-16T03:16:21;6.88;;;6.00;;
40951;SDS011;26682;51.660;19.338;2023-07-16T03:19:04;7.25;;;6.15;;
40951;SDS011;26682;51.660;19.338;2023-07-16T03:21:47;7.22;;;6.53;;
40951;SDS011;26682;51.660;19.338;2023-07-16T03:24:31;7.30;;;6.63;;
40951;SDS011;26682;51.660;19.338;2023-07-16T03:27:14;7.85;;;6.65;;
40951;SDS011;26682;51.660;19.338;2023-07-16T03:30:04;7.63;;;6.18;;
40951;SDS011;26682;51.660;19.338;2023-07-16T03:32:47;6.40;;;5.80;;
40951;SDS011;26682;51.660;19.338;2023-07-16T03:35:37;6.95;;;6.18;;
40951;SDS011;26682;51.660;19.338;2023-07-16T03:38:19;8.38;;;6.65;;
40951;SDS011;26682;51.660;19.338;2023-07-16T03:41:02;7.18;;;6.28;;
40951;SDS011;26682;51.660;19.338;2023-07-16T03:43:46;6.45;;;5.85;;
40951;SDS011;26682;51.660;19.338;2023-07-16T03:46:34;7.43;;;5.97;;
40951;SDS011;26682;51.660;19.338;2023-07-16T03:49:16;6.85;;;6.15;;
40951;SDS011;26682;51.660;19.338;2023-07-16T03:51:59;7.25;;;6.20;;
40951;SDS011;26682;51.660;19.338;2023-07-16T03:54:42;9.43;;;6.53;;
40951;SDS011;26682;51.660;19.338;2023-07-16T03:57:27;6.80;;;6.20;;
40951;SDS011;26682;51.660;19.338;2023-07-16T04:00:10;7.00;;;6.30;;
40951;SDS011;26682;51.660;19.338;2023-07-16T04:02:55;7.05;;;6.10;;
40951;SDS011;26682;51.660;19.338;2023-07-16T04:05:38;8.10;;;6.22;;
40951;SDS011;26682;51.660;19.338;2023-07-16T04:08:21;6.70;;;6.10;;
40951;SDS011;26682;51.660;19.338;2023-07-16T04:11:04;7.15;;;6.07;;
40951;SDS011;26682;51.660;19.338;2023-07-16T04:13:46;6.97;;;6.30;;
40951;SDS011;26682;51.660;19.338;2023-07-16T04:16:29;8.25;;;6.07;;
40951;SDS011;26682;51.660;19.338;2023-07-16T04:19:11;8.13;;;5.90;;
40951;SDS011;26682;51.660;19.338;2023-07-16T04:21:54;7.93;;;5.60;;
40951;SDS011;26682;51.660;19.338;2023-07-16T04:24:36;7.93;;;5.95;;
40951;SDS011;26682;51.660;19.338;2023-07-16T04:27:18;5.88;;;5.32;;
40951;SDS011;26682;51.660;19.338;2023-07-16T04:30:02;6.90;;;5.38;;
40951;SDS011;26682;51.660;19.338;2023-07-16T04:32:45;6.85;;;5.47;;
40951;SDS011;26682;51.660;19.338;2023-07-16T04:35:28;5.75;;;5.20;;
40951;SDS011;26682;51.660;19.338;2023-07-16T04:38:10;7.53;;;5.50;;
40951;SDS011;26682;51.660;19.338;2023-07-16T04:40:53;5.63;;;5.13;;
40951;SDS011;26682;51.660;19.338;2023-07-16T04:43:35;5.80;;;5.20;;
40951;SDS011;26682;51.660;19.338;2023-07-16T04:46:18;8.13;;;5.38;;
40951;SDS011;26682;51.660;19.338;2023-07-16T04:49:01;6.90;;;4.97;;
40951;SDS011;26682;51.660;19.338;2023-07-16T04:51:45;5.28;;;4.78;;
40951;SDS011;26682;51.660;19.338;2023-07-16T04:54:27;5.28;;;4.75;;
40951;SDS011;26682;51.660;19.338;2023-07-16T04:57:09;7.07;;;4.90;;
40951;SDS011;26682;51.660;19.338;2023-07-16T04:59:52;5.25;;;4.55;;
40951;SDS011;26682;51.660;19.338;2023-07-16T05:02:35;5.82;;;4.50;;
40951;SDS011;26682;51.660;19.338;2023-07-16T05:05:18;9.02;;;5.03;;
40951;SDS011;26682;51.660;19.338;2023-07-16T05:08:01;8.50;;;4.25;;
40951;SDS011;26682;51.660;19.338;2023-07-16T05:10:43;8.38;;;4.53;;
40951;SDS011;26682;51.660;19.338;2023-07-16T05:13:26;4.78;;;4.38;;
40951;SDS011;26682;51.660;19.338;2023-07-16T05:16:09;5.75;;;4.57;;
40951;SDS011;26682;51.660;19.338;2023-07-16T05:18:52;5.18;;;4.47;;
40951;SDS011;26682;51.660;19.338;2023-07-16T05:21:34;8.77;;;4.47;;
40951;SDS011;26682;51.660;19.338;2023-07-16T05:24:16;6.70;;;4.47;;
40951;SDS011;26682;51.660;19.338;2023-07-16T05:26:59;4.63;;;4.22;;
40951;SDS011;26682;51.660;19.338;2023-07-16T05:29:41;4.72;;;4.28;;
40951;SDS011;26682;51.660;19.338;2023-07-16T05:32:24;7.72;;;4.95;;
40951;SDS011;26682;51.660;19.338;2023-07-16T05:35:07;5.60;;;4.68;;
40951;SDS011;26682;51.660;19.338;2023-07-16T05:37:49;5.10;;;4.50;;
40951;SDS011;26682;51.660;19.338;2023-07-16T05:40:32;5.60;;;4.82;;
40951;SDS011;26682;51.660;19.338;2023-07-16T05:43:14;8.07;;;5.30;;
40951;SDS011;26682;51.660;19.338;2023-07-16T05:45:57;7.18;;;5.00;;
40951;SDS011;26682;51.660;19.338;2023-07-16T05:48:39;7.45;;;4.82;;
40951;SDS011;26682;51.660;19.338;2023-07-16T05:51:22;6.05;;;5.45;;
40951;SDS011;26682;51.660;19.338;2023-07-16T05:54:04;5.80;;;5.20;;
40951;SDS011;26682;51.660;19.338;2023-07-16T05:56:48;6.45;;;4.93;;
40951;SDS011;26682;51.660;19.338;2023-07-16T05:59:30;6.13;;;5.15;;
40951;SDS011;26682;51.660;19.338;2023-07-16T06:02:16;11.13;;;5.45;;
40951;SDS011;26682;51.660;19.338;2023-07-16T06:04:58;6.55;;;5.25;;
40951;SDS011;26682;51.660;19.338;2023-07-16T06:07:41;5.85;;;5.35;;
40951;SDS011;26682;51.660;19.338;2023-07-16T06:10:23;5.70;;;5.20;;
40951;SDS011;26682;51.660;19.338;2023-07-16T06:13:05;7.32;;;5.22;;
40951;SDS011;26682;51.660;19.338;2023-07-16T06:15:48;6.40;;;5.90;;
40951;SDS011;26682;51.660;19.338;2023-07-16T06:18:30;6.22;;;5.30;;
40951;SDS011;26682;51.660;19.338;2023-07-16T06:21:13;6.63;;;5.55;;
40951;SDS011;26682;51.660;19.338;2023-07-16T06:23:55;7.75;;;5.70;;
40951;SDS011;26682;51.660;19.338;2023-07-16T06:26:39;7.00;;;5.60;;
40951;SDS011;26682;51.660;19.338;2023-07-16T06:29:21;7.35;;;5.50;;
40951;SDS011;26682;51.660;19.338;2023-07-16T06:32:03;6.72;;;5.75;;
40951;SDS011;26682;51.660;19.338;2023-07-16T06:34:47;7.03;;;6.13;;
40951;SDS011;26682;51.660;19.338;2023-07-16T06:37:30;9.57;;;5.90;;
40951;SDS011;26682;51.660;19.338;2023-07-16T06:40:12;9.18;;;6.10;;
40951;SDS011;26682;51.660;19.338;2023-07-16T06:42:55;8.50;;;5.95;;
40951;SDS011;26682;51.660;19.338;2023-07-16T06:45:37;6.72;;;6.03;;
40951;SDS011;26682;51.660;19.338;2023-07-16T06:48:20;7.72;;;6.07;;
40951;SDS011;26682;51.660;19.338;2023-07-16T06:51:02;8.45;;;6.63;;
40951;SDS011;26682;51.660;19.338;2023-07-16T06:53:45;9.00;;;6.22;;
40951;SDS011;26682;51.660;19.338;2023-07-16T06:56:28;10.10;;;5.90;;
40951;SDS011;26682;51.660;19.338;2023-07-16T06:59:10;8.95;;;6.30;;
40951;SDS011;26682;51.660;19.338;2023-07-16T07:01:53;6.95;;;5.78;;
40951;SDS011;26682;51.660;19.338;2023-07-16T07:04:35;9.73;;;6.72;;
40951;SDS011;26682;51.660;19.338;2023-07-16T07:07:18;6.78;;;6.07;;
40951;SDS011;26682;51.660;19.338;2023-07-16T07:10:00;10.15;;;5.97;;
40951;SDS011;26682;51.660;19.338;2023-07-16T07:12:43;7.20;;;5.68;;
40951;SDS011;26682;51.660;19.338;2023-07-16T07:15:26;8.85;;;5.80;;
40951;SDS011;26682;51.660;19.338;2023-07-16T07:18:08;7.70;;;5.88;;
40951;SDS011;26682;51.660;19.338;2023-07-16T07:20:51;8.80;;;6.00;;
40951;SDS011;26682;51.660;19.338;2023-07-16T07:23:33;6.10;;;5.55;;
40951;SDS011;26682;51.660;19.338;2023-07-16T07:26:16;6.88;;;5.20;;
40951;SDS011;26682;51.660;19.338;2023-07-16T07:28:59;6.35;;;5.70;;
40951;SDS011;26682;51.660;19.338;2023-07-16T07:31:41;6.43;;;5.93;;
40951;SDS011;26682;51.660;19.338;2023-07-16T07:34:24;8.95;;;6.35;;
40951;SDS011;26682;51.660;19.338;2023-07-16T07:37:06;6.10;;;5.57;;
40951;SDS011;26682;51.660;19.338;2023-07-16T07:39:52;9.68;;;6.60;;
40951;SDS011;26682;51.660;19.338;2023-07-16T07:42:35;11.63;;;6.00;;
40951;SDS011;26682;51.660;19.338;2023-07-16T07:45:19;8.00;;;6.05;;
40951;SDS011;26682;51.660;19.338;2023-07-16T07:48:02;8.68;;;6.13;;
40951;SDS011;26682;51.660;19.338;2023-07-16T07:50:46;6.45;;;5.85;;
40951;SDS011;26682;51.660;19.338;2023-07-16T07:53:31;12.00;;;6.00;;
40951;SDS011;26682;51.660;19.338;2023-07-16T07:56:13;5.80;;;4.78;;
40951;SDS011;26682;51.660;19.338;2023-07-16T07:58:56;10.27;;;4.82;;
40951;SDS011;26682;51.660;19.338;2023-07-16T08:01:39;5.20;;;4.70;;
40951;SDS011;26682;51.660;19.338;2023-07-16T08:04:22;7.38;;;5.07;;
40951;SDS011;26682;51.660;19.338;2023-07-16T08:07:05;9.18;;;4.80;;
40951;SDS011;26682;51.660;19.338;2023-07-16T08:09:48;8.88;;;5.05;;
40951;SDS011;26682;51.660;19.338;2023-07-16T08:12:30;4.35;;;3.95;;
40951;SDS011;26682;51.660;19.338;2023-07-16T08:15:13;5.38;;;3.63;;
40951;SDS011;26682;51.660;19.338;2023-07-16T08:17:58;4.57;;;3.30;;
40951;SDS011;26682;51.660;19.338;2023-07-16T08:20:41;10.40;;;2.95;;
40951;SDS011;26682;51.660;19.338;2023-07-16T08:23:24;4.18;;;2.88;;
40951;SDS011;26682;51.660;19.338;2023-07-16T08:26:06;7.28;;;2.83;;
40951;SDS011;26682;51.660;19.338;2023-07-16T08:28:49;4.28;;;2.70;;
40951;SDS011;26682;51.660;19.338;2023-07-16T08:31:31;4.15;;;2.60;;
40951;SDS011;26682;51.660;19.338;2023-07-16T08:34:14;5.45;;;2.70;;
40951;SDS011;26682;51.660;19.338;2023-07-16T08:36:56;9.98;;;2.65;;
40951;SDS011;26682;51.660;19.338;2023-07-16T08:39:39;3.53;;;2.83;;
40951;SDS011;26682;51.660;19.338;2023-07-16T08:42:21;7.45;;;2.92;;
40951;SDS011;26682;51.660;19.338;2023-07-16T08:45:09;3.65;;;2.47;;
40951;SDS011;26682;51.660;19.338;2023-07-16T08:47:52;4.00;;;2.95;;
40951;SDS011;26682;51.660;19.338;2023-07-16T08:50:36;4.75;;;3.03;;
40951;SDS011;26682;51.660;19.338;2023-07-16T08:53:19;4.45;;;3.03;;
40951;SDS011;26682;51.660;19.338;2023-07-16T08:56:02;5.28;;;2.60;;
40951;SDS011;26682;51.660;19.338;2023-07-16T08:58:47;6.65;;;2.67;;
40951;SDS011;26682;51.660;19.338;2023-07-16T09:01:31;4.03;;;2.58;;
40951;SDS011;26682;51.660;19.338;2023-07-16T09:04:13;4.57;;;2.78;;
40951;SDS011;26682;51.660;19.338;2023-07-16T09:06:56;4.20;;;2.33;;
40951;SDS011;26682;51.660;19.338;2023-07-16T09:09:39;5.95;;;2.67;;
40951;SDS011;26682;51.660;19.338;2023-07-16T09:12:23;7.65;;;2.40;;
40951;SDS011;26682;51.660;19.338;2023-07-16T09:15:06;2.43;;;2.23;;
40951;SDS011;26682;51.660;19.338;2023-07-16T09:17:49;5.57;;;2.42;;
40951;SDS011;26682;51.660;19.338;2023-07-16T09:20:32;2.75;;;2.53;;
40951;SDS011;26682;51.660;19.338;2023-07-16T09:23:16;9.38;;;2.42;;
40951;SDS011;26682;51.660;19.338;2023-07-16T09:25:59;3.88;;;2.10;;
40951;SDS011;26682;51.660;19.338;2023-07-16T09:28:43;3.45;;;2.50;;
40951;SDS011;26682;51.660;19.338;2023-07-16T09:31:29;2.28;;;1.95;;
40951;SDS011;26682;51.660;19.338;2023-07-16T09:34:11;4.18;;;1.90;;
40951;SDS011;26682;51.660;19.338;2023-07-16T09:36:54;3.63;;;1.92;;
40951;SDS011;26682;51.660;19.338;2023-07-16T09:39:38;2.55;;;2.35;;
40951;SDS011;26682;51.660;19.338;2023-07-16T09:42:21;4.13;;;2.15;;
40951;SDS011;26682;51.660;19.338;2023-07-16T09:45:07;2.35;;;2.15;;
40951;SDS011;26682;51.660;19.338;2023-07-16T09:47:59;2.30;;;2.10;;
40951;SDS011;26682;51.660;19.338;2023-07-16T09:50:45;7.18;;;2.00;;
40951;SDS011;26682;51.660;19.338;2023-07-16T09:53:33;5.85;;;2.00;;
40951;SDS011;26682;51.660;19.338;2023-07-16T09:56:18;3.47;;;2.20;;
40951;SDS011;26682;51.660;19.338;2023-07-16T09:59:02;2.63;;;1.60;;
40951;SDS011;26682;51.660;19.338;2023-07-16T10:01:48;2.08;;;1.67;;
40951;SDS011;26682;51.660;19.338;2023-07-16T10:04:38;3.30;;;1.58;;
40951;SDS011;26682;51.660;19.338;2023-07-16T10:07:25;4.43;;;1.58;;
40951;SDS011;26682;51.660;19.338;2023-07-16T10:10:09;1.65;;;1.42;;
40951;SDS011;26682;51.660;19.338;2023-07-16T10:13:01;1.90;;;1.70;;
40951;SDS011;26682;51.660;19.338;2023-07-16T10:15:51;2.00;;;1.40;;
40951;SDS011;26682;51.660;19.338;2023-07-16T10:18:38;4.40;;;1.60;;
40951;SDS011;26682;51.660;19.338;2023-07-16T10:21:24;3.40;;;1.70;;
40951;SDS011;26682;51.660;19.338;2023-07-16T10:24:16;4.70;;;1.95;;
40951;SDS011;26682;51.660;19.338;2023-07-16T10:27:02;6.70;;;1.65;;
40951;SDS011;26682;51.660;19.338;2023-07-16T10:29:45;1.83;;;1.42;;
40951;SDS011;26682;51.660;19.338;2023-07-16T10:32:27;4.85;;;1.90;;
40951;SDS011;26682;51.660;19.338;2023-07-16T10:35:12;1.25;;;1.13;;
40951;SDS011;26682;51.660;19.338;2023-07-16T10:37:55;3.33;;;1.63;;
40951;SDS011;26682;51.660;19.338;2023-07-16T10:40:41;4.03;;;2.10;;
40951;SDS011;26682;51.660;19.338;2023-07-16T10:43:25;2.45;;;1.67;;
40951;SDS011;26682;51.660;19.338;2023-07-16T10:46:09;3.25;;;1.70;;
40951;SDS011;26682;51.660;19.338;2023-07-16T10:48:51;2.00;;;1.30;;
40951;SDS011;26682;51.660;19.338;2023-07-16T10:51:34;4.22;;;1.13;;
40951;SDS011;26682;51.660;19.338;2023-07-16T10:54:19;4.15;;;1.80;;
40951;SDS011;26682;51.660;19.338;2023-07-16T10:57:03;1.33;;;1.23;;
40951;SDS011;26682;51.660;19.338;2023-07-16T10:59:46;3.08;;;1.33;;
40951;SDS011;26682;51.660;19.338;2023-07-16T11:02:30;2.05;;;1.05;;
40951;SDS011;26682;51.660;19.338;2023-07-16T11:05:13;2.85;;;1.13;;
40951;SDS011;26682;51.660;19.338;2023-07-16T11:07:56;3.30;;;1.35;;
40951;SDS011;26682;51.660;19.338;2023-07-16T11:10:39;2.03;;;1.17;;
40951;SDS011;26682;51.660;19.338;2023-07-16T11:13:24;2.55;;;1.40;;
40951;SDS011;26682;51.660;19.338;2023-07-16T11:16:10;2.40;;;1.13;;
40951;SDS011;26682;51.660;19.338;2023-07-16T11:18:53;4.57;;;1.27;;
40951;SDS011;26682;51.660;19.338;2023-07-16T11:21:36;1.80;;;1.40;;
40951;SDS011;26682;51.660;19.338;2023-07-16T11:24:19;4.97;;;1.58;;
40951;SDS011;26682;51.660;19.338;2023-07-16T11:27:02;3.30;;;1.27;;
40951;SDS011;26682;51.660;19.338;2023-07-16T11:29:50;3.03;;;1.50;;
40951;SDS011;26682;51.660;19.338;2023-07-16T11:32:34;4.97;;;1.75;;
40951;SDS011;26682;51.660;19.338;2023-07-16T11:35:19;2.38;;;1.30;;
40951;SDS011;26682;51.660;19.338;2023-07-16T11:38:02;4.70;;;1.40;;
40951;SDS011;26682;51.660;19.338;2023-07-16T11:40:46;4.53;;;1.40;;
40951;SDS011;26682;51.660;19.338;2023-07-16T11:43:28;5.20;;;1.60;;
40951;SDS011;26682;51.660;19.338;2023-07-16T11:46:15;4.55;;;1.60;;
40951;SDS011;26682;51.660;19.338;2023-07-16T11:49:00;1.73;;;1.50;;
40951;SDS011;26682;51.660;19.338;2023-07-16T11:51:43;2.22;;;1.40;;
40951;SDS011;26682;51.660;19.338;2023-07-16T11:54:25;3.83;;;1.60;;
40951;SDS011;26682;51.660;19.338;2023-07-16T11:57:08;5.47;;;1.50;;
40951;SDS011;26682;51.660;19.338;2023-07-16T11:59:50;1.83;;;1.73;;
40951;SDS011;26682;51.660;19.338;2023-07-16T12:02:34;3.60;;;1.73;;
40951;SDS011;26682;51.660;19.338;2023-07-16T12:05:17;2.05;;;1.40;;
40951;SDS011;26682;51.660;19.338;2023-07-16T12:08:00;1.60;;;1.50;;
40951;SDS011;26682;51.660;19.338;2023-07-16T12:10:43;7.20;;;1.75;;
40951;SDS011;26682;51.660;19.338;2023-07-16T12:13:26;3.40;;;1.60;;
40951;SDS011;26682;51.660;19.338;2023-07-16T12:16:08;3.60;;;1.80;;
40951;SDS011;26682;51.660;19.338;2023-07-16T12:18:51;1.80;;;1.50;;
40951;SDS011;26682;51.660;19.338;2023-07-16T12:21:34;6.53;;;1.92;;
40951;SDS011;26682;51.660;19.338;2023-07-16T12:24:16;1.70;;;1.40;;
40951;SDS011;26682;51.660;19.338;2023-07-16T12:26:59;2.88;;;1.70;;
40951;SDS011;26682;51.660;19.338;2023-07-16T12:29:42;6.32;;;1.83;;
40951;SDS011;26682;51.660;19.338;2023-07-16T12:32:25;4.50;;;1.42;;
40951;SDS011;26682;51.660;19.338;2023-07-16T12:35:08;2.10;;;1.50;;
40951;SDS011;26682;51.660;19.338;2023-07-16T12:37:50;4.78;;;1.73;;
40951;SDS011;26682;51.660;19.338;2023-07-16T12:40:33;5.43;;;1.65;;
40951;SDS011;26682;51.660;19.338;2023-07-16T12:43:21;3.60;;;1.48;;
40951;SDS011;26682;51.660;19.338;2023-07-16T12:46:04;3.33;;;1.90;;
40951;SDS011;26682;51.660;19.338;2023-07-16T12:48:46;3.03;;;1.75;;
40951;SDS011;26682;51.660;19.338;2023-07-16T12:51:29;2.42;;;1.52;;
40951;SDS011;26682;51.660;19.338;2023-07-16T12:54:13;4.20;;;1.98;;
40951;SDS011;26682;51.660;19.338;2023-07-16T12:56:55;1.35;;;1.25;;
40951;SDS011;26682;51.660;19.338;2023-07-16T12:59:38;2.50;;;1.75;;
40951;SDS011;26682;51.660;19.338;2023-07-16T13:02:21;2.60;;;1.58;;
40951;SDS011;26682;51.660;19.338;2023-07-16T13:05:03;1.80;;;1.40;;
40951;SDS011;26682;51.660;19.338;2023-07-16T13:07:46;2.80;;;1.92;;
40951;SDS011;26682;51.660;19.338;2023-07-16T13:10:28;2.05;;;1.73;;
40951;SDS011;26682;51.660;19.338;2023-07-16T13:13:11;3.05;;;1.30;;
40951;SDS011;26682;51.660;19.338;2023-07-16T13:15:54;2.80;;;1.40;;
40951;SDS011;26682;51.660;19.338;2023-07-16T13:18:37;2.30;;;1.70;;
40951;SDS011;26682;51.660;19.338;2023-07-16T13:21:20;2.35;;;1.17;;
40951;SDS011;26682;51.660;19.338;2023-07-16T13:24:03;3.22;;;1.73;;
40951;SDS011;26682;51.660;19.338;2023-07-16T13:26:45;4.07;;;1.70;;
40951;SDS011;26682;51.660;19.338;2023-07-16T13:29:29;3.83;;;1.75;;
40951;SDS011;26682;51.660;19.338;2023-07-16T13:32:12;4.38;;;1.50;;
40951;SDS011;26682;51.660;19.338;2023-07-16T13:34:56;2.38;;;1.30;;
40951;SDS011;26682;51.660;19.338;2023-07-16T13:37:38;2.38;;;1.65;;
40951;SDS011;26682;51.660;19.338;2023-07-16T13:40:21;2.88;;;1.63;;
40951;SDS011;26682;51.660;19.338;2023-07-16T13:43:03;1.40;;;1.27;;
40951;SDS011;26682;51.660;19.338;2023-07-16T13:45:46;1.40;;;1.20;;
40951;SDS011;26682;51.660;19.338;2023-07-16T13:48:29;1.80;;;1.23;;
40951;SDS011;26682;51.660;19.338;2023-07-16T13:51:29;3.20;;;1.40;;
40951;SDS011;26682;51.660;19.338;2023-07-16T13:54:11;1.85;;;1.10;;
40951;SDS011;26682;51.660;19.338;2023-07-16T13:56:54;4.78;;;1.67;;
40951;SDS011;26682;51.660;19.338;2023-07-16T13:59:37;1.98;;;1.40;;
40951;SDS011;26682;51.660;19.338;2023-07-16T14:02:20;3.92;;;1.55;;
40951;SDS011;26682;51.660;19.338;2023-07-16T14:05:02;2.75;;;1.30;;
40951;SDS011;26682;51.660;19.338;2023-07-16T14:07:46;1.50;;;1.40;;
40951;SDS011;26682;51.660;19.338;2023-07-16T14:10:29;6.78;;;1.83;;
40951;SDS011;26682;51.660;19.338;2023-07-16T14:13:12;1.55;;;1.38;;
40951;SDS011;26682;51.660;19.338;2023-07-16T14:15:54;6.85;;;1.45;;
40951;SDS011;26682;51.660;19.338;2023-07-16T14:18:37;3.50;;;1.20;;
40951;SDS011;26682;51.660;19.338;2023-07-16T14:21:20;3.05;;;1.30;;
40951;SDS011;26682;51.660;19.338;2023-07-16T14:24:03;4.47;;;1.38;;
40951;SDS011;26682;51.660;19.338;2023-07-16T14:26:46;1.70;;;1.10;;
40951;SDS011;26682;51.660;19.338;2023-07-16T14:29:29;1.55;;;1.35;;
40951;SDS011;26682;51.660;19.338;2023-07-16T14:32:11;2.22;;;1.30;;
40951;SDS011;26682;51.660;19.338;2023-07-16T14:34:55;2.17;;;1.60;;
40951;SDS011;26682;51.660;19.338;2023-07-16T14:37:37;2.13;;;1.20;;
40951;SDS011;26682;51.660;19.338;2023-07-16T14:40:20;1.58;;;1.30;;
40951;SDS011;26682;51.660;19.338;2023-07-16T14:43:04;1.60;;;1.10;;
40951;SDS011;26682;51.660;19.338;2023-07-16T14:45:50;2.40;;;1.67;;
40951;SDS011;26682;51.660;19.338;2023-07-16T14:48:33;2.35;;;1.60;;
40951;SDS011;26682;51.660;19.338;2023-07-16T14:51:17;1.77;;;1.45;;
40951;SDS011;26682;51.660;19.338;2023-07-16T14:54:00;1.95;;;1.30;;
40951;SDS011;26682;51.660;19.338;2023-07-16T14:56:43;3.30;;;1.27;;
40951;SDS011;26682;51.660;19.338;2023-07-16T14:59:26;1.95;;;1.40;;
40951;SDS011;26682;51.660;19.338;2023-07-16T15:02:09;5.18;;;1.35;;
40951;SDS011;26682;51.660;19.338;2023-07-16T15:04:51;2.22;;;1.52;;
40951;SDS011;26682;51.660;19.338;2023-07-16T15:07:34;2.28;;;1.38;;
40951;SDS011;26682;51.660;19.338;2023-07-16T15:10:18;2.55;;;1.40;;
40951;SDS011;26682;51.660;19.338;2023-07-16T15:13:01;5.95;;;1.55;;
40951;SDS011;26682;51.660;19.338;2023-07-16T15:15:56;2.35;;;1.30;;
40951;SDS011;26682;51.660;19.338;2023-07-16T15:18:40;2.45;;;1.40;;
40951;SDS011;26682;51.660;19.338;2023-07-16T15:21:23;2.78;;;1.50;;
40951;SDS011;26682;51.660;19.338;2023-07-16T15:24:06;2.15;;;1.35;;
40951;SDS011;26682;51.660;19.338;2023-07-16T15:26:48;2.50;;;1.50;;
40951;SDS011;26682;51.660;19.338;2023-07-16T15:29:31;2.35;;;1.30;;
40951;SDS011;26682;51.660;19.338;2023-07-16T15:32:13;2.70;;;1.50;;
40951;SDS011;26682;51.660;19.338;2023-07-16T15:34:57;5.10;;;1.70;;
40951;SDS011;26682;51.660;19.338;2023-07-16T15:37:40;2.42;;;1.27;;
40951;SDS011;26682;51.660;19.338;2023-07-16T15:40:23;2.15;;;1.15;;
40951;SDS011;26682;51.660;19.338;2023-07-16T15:43:06;1.25;;;1.15;;
40951;SDS011;26682;51.660;19.338;2023-07-16T15:45:49;4.82;;;1.55;;
40951;SDS011;26682;51.660;19.338;2023-07-16T15:48:32;2.85;;;1.50;;
40951;SDS011;26682;51.660;19.338;2023-07-16T15:51:15;6.40;;;1.60;;
40951;SDS011;26682;51.660;19.338;2023-07-16T15:53:58;4.07;;;1.85;;
40951;SDS011;26682;51.660;19.338;2023-07-16T15:56:42;2.28;;;1.73;;
40951;SDS011;26682;51.660;19.338;2023-07-16T15:59:25;2.13;;;1.52;;
40951;SDS011;26682;51.660;19.338;2023-07-16T16:02:08;2.72;;;1.70;;
40951;SDS011;26682;51.660;19.338;2023-07-16T16:04:50;3.35;;;1.40;;
40951;SDS011;26682;51.660;19.338;2023-07-16T16:07:33;2.20;;;1.27;;
40951;SDS011;26682;51.660;19.338;2023-07-16T16:10:16;3.25;;;1.38;;
40951;SDS011;26682;51.660;19.338;2023-07-16T16:13:01;1.42;;;1.33;;